»·PEaware :: N9298L KSEA-KPDX

N9298L :: KSEA-KPDX

FLIGHT INFORMATION

Flight Status: Arrived
Operator: Privately registered:
United States
More flights under this callsign
Pilot: Brendan O. (14500)
Aircraft: PIPER PA-32 SARATOGA
(PA32)
More flights by this aircraft type
Origin: KSEA Seattle-Tacoma Intl
United States
Destination: KPDX Portland Intl
United States
More flights between these airports :: More routes between these airports
Route: +SEA6 BTG
File this flight plan on PilotEdge
Remarks: BTG Transition
Altitude:
(Current/Filed)
6,000ft
Speed:
(Current/Filed)
145kts
Departed: 01-Dec-17 08:48 AM
Arrived: 01-Dec-17 09:41 AM
Distance/Time
Traveled:
112nm/0:53
Distance/Time
To Go:
Arrived

Flight Plot

Page will automatically refresh every two minutes.

Flight plan parsing failed; only flown route is shown


Map Options




Map Legend


Flown Route
Filed Route
Departure Airport
Arrival Airport
Navaid (VOR, NDB)
Fix

Horizontal Profiles

Position Reports

Time Latitude Longitude Heading Altitude Ground
Speed
01-Dec-17 08:41 47.439019 -122.315051 55 349ft 0kts
01-Dec-17 08:42 47.439019 -122.315050 55 349ft 0kts
01-Dec-17 08:43 47.439019 -122.315050 55 349ft 0kts
01-Dec-17 08:44 47.439019 -122.315050 55 349ft 0kts
01-Dec-17 08:45 47.439019 -122.315050 55 349ft 0kts
01-Dec-17 08:46 47.439019 -122.315050 55 349ft 0kts
01-Dec-17 08:47 47.439019 -122.315050 55 349ft 0kts
01-Dec-17 08:48 47.441118 -122.313593 1 360ft 6kts
01-Dec-17 08:49 47.445312 -122.313562 1 373ft 13kts
01-Dec-17 08:50 47.449952 -122.313498 3 398ft 24kts
01-Dec-17 08:51 47.455060 -122.312590 89 405ft 2kts
01-Dec-17 08:52 47.454399 -122.311069 188 413ft 0kts
01-Dec-17 08:53 47.436349 -122.311749 180 846ft 99kts
01-Dec-17 08:54 47.408089 -122.308660 168 2210ft 105kts
01-Dec-17 08:55 47.379532 -122.303207 179 3688ft 106kts
01-Dec-17 08:56 47.345981 -122.309140 186 4339ft 138kts
01-Dec-17 08:57 47.308804 -122.315901 188 5020ft 136kts
01-Dec-17 08:58 47.274713 -122.322069 189 5650ft 135kts
01-Dec-17 08:59 47.237755 -122.328828 190 6017ft 148kts
01-Dec-17 09:00 47.195171 -122.336553 190 6015ft 158kts
01-Dec-17 09:01 47.151469 -122.344433 190 6014ft 158kts
01-Dec-17 09:02 47.108428 -122.352192 190 6013ft 153kts
01-Dec-17 09:03 47.066806 -122.359696 190 5995ft 149kts
01-Dec-17 09:04 47.026630 -122.366921 190 5994ft 143kts
01-Dec-17 09:05 46.987217 -122.374022 191 5995ft 144kts
01-Dec-17 09:06 46.946498 -122.381351 192 5994ft 151kts
01-Dec-17 09:07 46.903812 -122.390279 207 5961ft 158kts
01-Dec-17 09:08 46.862893 -122.421617 211 5304ft 180kts
01-Dec-17 09:09 46.819118 -122.456643 211 4925ft 173kts
01-Dec-17 09:10 46.777474 -122.489078 206 4928ft 169kts
01-Dec-17 09:11 46.730661 -122.494830 187 4932ft 170kts
01-Dec-17 09:12 46.682754 -122.500300 185 4937ft 175kts
01-Dec-17 09:13 46.633921 -122.505168 184 4936ft 179kts
01-Dec-17 09:14 46.584193 -122.501273 175 4934ft 180kts
01-Dec-17 09:15 46.535085 -122.499297 182 4937ft 170kts
01-Dec-17 09:16 46.515345 -122.502199 183 4943ft 165kts
01-Dec-17 09:17 46.474489 -122.507862 183 4957ft 161kts
01-Dec-17 09:18 46.430292 -122.513145 184 5144ft 151kts
01-Dec-17 09:19 46.392340 -122.517543 186 5970ft 137kts
01-Dec-17 09:20 46.350915 -122.522371 185 5982ft 155kts
01-Dec-17 09:21 46.307569 -122.527381 185 5980ft 157kts
01-Dec-17 09:22 46.264057 -122.532412 185 5980ft 157kts
01-Dec-17 09:23 46.220635 -122.537429 185 5980ft 158kts
01-Dec-17 09:24 46.177161 -122.542443 185 5980ft 157kts
01-Dec-17 09:25 46.133608 -122.547461 185 5980ft 157kts
01-Dec-17 09:26 46.090235 -122.552447 185 5979ft 157kts
01-Dec-17 09:27 46.047070 -122.557401 185 5979ft 157kts
01-Dec-17 09:28 46.003453 -122.562400 184 5979ft 157kts
01-Dec-17 09:29 45.959990 -122.567375 184 5979ft 157kts
01-Dec-17 09:30 45.916399 -122.572350 183 5979ft 158kts
01-Dec-17 09:31 45.874507 -122.577127 182 5983ft 160kts
01-Dec-17 09:32 45.828205 -122.582408 186 5983ft 179kts
01-Dec-17 09:33 45.777706 -122.588165 187 5759ft 190kts
01-Dec-17 09:34 45.730976 -122.568263 136 5046ft 188kts
01-Dec-17 09:35 45.693918 -122.516602 135 4345ft 186kts
01-Dec-17 09:36 45.657515 -122.465752 135 3650ft 184kts
01-Dec-17 09:37 45.622432 -122.416594 135 3005ft 180kts
01-Dec-17 09:38 45.588972 -122.369590 135 2979ft 162kts
01-Dec-17 09:39 45.548151 -122.358180 205 2343ft 151kts
01-Dec-17 09:40 45.513167 -122.381813 221 1946ft 125kts
01-Dec-17 09:41 45.523796 -122.421444 314 1774ft 124kts
01-Dec-17 09:42 45.545071 -122.466672 301 1677ft 138kts
01-Dec-17 09:43 45.560327 -122.508191 302 1053ft 110kts
01-Dec-17 09:44 45.575111 -122.545407 298 403ft 101kts
01-Dec-17 09:45 45.588531 -122.579544 299 26ft 70kts
01-Dec-17 09:46 45.590272 -122.586752 264 18ft 0kts
01-Dec-17 09:47 45.589339 -122.588593 10 18ft 0kts

Navigation Log

Ident Type
Flight plan parsing failed, navigation log unavailable